This is the latest recevied weather packets stored in our database for station/object W2SRH. If no packets are shown the sender has not sent any weather packets the latest 10 day(s).
| Time | Temp. | Humidity | Pressure | Rain* | Wind** | Luminosity | Snow |
|---|---|---|---|---|---|---|---|
| 1777918745 | 22.22° C | 27% | 1002.8 hPa | 0 mm | 1.79 m/s, 280° | - | - |
| 1777918144 | 22.22° C | 28% | 1002.8 hPa | 0 mm | 0.45 m/s, 194° | - | - |
| 1777917545 | 21.67° C | 27% | 1003 hPa | 0 mm | 1.34 m/s, 277° | - | - |
| 1777916946 | 21.11° C | 27% | 1003.2 hPa | 0 mm | 2.24 m/s, 244° | - | - |
| 1777916343 | 21.11° C | 28% | 1003.2 hPa | 0 mm | 1.79 m/s, 285° | - | - |
| 1777915746 | 21.11° C | 29% | 1003.4 hPa | 0 mm | 1.34 m/s, 231° | - | - |
| 1777915144 | 20.56° C | 30% | 1003.5 hPa | 0 mm | 0.89 m/s, 270° | - | - |
| 1777914547 | 20.56° C | 31% | 1003.6 hPa | 0 mm | 0.89 m/s, 254° | - | - |
| 1777913944 | 20.56° C | 30% | 1003.7 hPa | 0 mm | 1.79 m/s, 255° | - | - |
| 1777913344 | 20.56° C | 30% | 1003.9 hPa | 0 mm | 2.24 m/s, 270° | - | - |
| 1777912744 | 20° C | 30% | 1004.1 hPa | 0 mm | 0.45 m/s, 190° | - | - |
| 1777912145 | 19.44° C | 32% | 1004.2 hPa | 0 mm | 1.79 m/s, 297° | - | - |
| 1777911543 | 19.44° C | 31% | 1004.3 hPa | 0 mm | 1.79 m/s, 276° | - | - |
| 1777910945 | 20° C | 32% | 1004.5 hPa | 0 mm | 1.34 m/s, 254° | - | - |
| 1777910344 | 19.44° C | 34% | 1004.7 hPa | 0 mm | 1.34 m/s, 237° | - | - |
| 1777909746 | 18.89° C | 34% | 1004.7 hPa | 0 mm | 1.34 m/s, 282° | - | - |
| 1777909144 | 18.89° C | 35% | 1004.7 hPa | 0 mm | 2.24 m/s, 256° | - | - |
| 1777908544 | 18.89° C | 34% | 1004.9 hPa | 0 mm | 2.24 m/s, 261° | - | - |
| 1777907944 | 18.33° C | 34% | 1005 hPa | 0 mm | 1.34 m/s, 247° | - | - |
| 1777907344 | 18.33° C | 38% | 1005 hPa | 0 mm | 0.89 m/s, 235° | - | - |
| 1777906744 | 18.33° C | 40% | 1005.1 hPa | 0 mm | 0.45 m/s, 246° | - | - |
| 1777906144 | 17.78° C | 41% | 1005 hPa | 0 mm | 0.89 m/s, 242° | - | - |
| 1777905544 | 17.22° C | 45% | 1005.1 hPa | 0 mm | 0.89 m/s, 254° | - | - |
| 1777904947 | 17.22° C | 45% | 1005.2 hPa | 0 mm | 1.79 m/s, 285° | - | - |
| 1777904343 | 16.67° C | 46% | 1005.2 hPa | 0 mm | 0.89 m/s, 198° | - | - |
* Rain latest hour (hover to see other rain measurements)
** Current wind speed in m/s (hover to see current wind gust speed)